Time;durP1;ratioP1;P1;durP2;ratioP2;P2;SDS_P1;SDS_P2;PMS_P1;PMS_P2;Temp;Humidity;BMP_temperature;BMP_pressure;BME280_temperature;BME280_humidity;BME280_pressure;Samples;Min_cycle;Max_cycle;Signal;HPM_P1;HPM_P2
2021/09/21 00:01:46;;;;;;;4.60;1.58;;;;;;;19.95;47.83;102608.19;5051999;28;20533;-60
2021/09/21 00:04:11;;;;;;;2.93;1.50;;;;;;;19.94;47.84;102606.47;5051622;28;20096;-60
2021/09/21 00:06:37;;;;;;;2.85;1.48;;;;;;;19.93;47.92;102613.56;5051531;28;20355;-60
2021/09/21 00:09:02;;;;;;;3.70;1.70;;;;;;;19.93;47.98;102616.22;5051861;28;20083;-60
2021/09/21 00:11:33;;;;;;;3.35;1.67;;;;;;;19.91;47.82;102617.25;5052281;28;20477;-60
2021/09/21 00:14:00;;;;;;;3.63;1.38;;;;;;;19.92;47.81;102619.78;5050833;28;20463;-60
2021/09/21 00:16:26;;;;;;;3.10;1.60;;;;;;;19.92;47.72;102624.25;5051947;28;20032;-60
2021/09/21 00:18:54;;;;;;;2.58;1.27;;;;;;;19.91;47.80;102635.75;5052013;28;20302;-60
2021/09/21 00:21:20;;;;;;;3.08;1.58;;;;;;;19.89;47.92;102635.84;5051074;28;20028;-59
2021/09/21 00:23:45;;;;;;;3.33;1.60;;;;;;;19.89;47.75;102635.84;5052135;28;20373;-60
2021/09/21 00:26:10;;;;;;;3.65;1.60;;;;;;;19.88;47.77;102636.78;5051648;28;20120;-60
2021/09/21 00:28:36;;;;;;;2.90;1.55;;;;;;;19.89;47.89;102641.16;5051063;28;20029;-60
2021/09/21 00:31:09;;;;;;;3.53;1.60;;;;;;;19.88;47.95;102639.44;5051490;28;20056;-60
2021/09/21 00:33:46;;;;;;;3.90;1.57;;;;;;;19.89;47.81;102640.31;5051795;28;20040;-60
2021/09/21 00:36:14;;;;;;;2.55;1.35;;;;;;;19.88;47.85;102635.94;5051115;28;20033;-59
2021/09/21 00:38:43;;;;;;;3.00;1.45;;;;;;;19.87;47.76;102640.41;5051778;28;20021;-59
2021/09/21 00:41:10;;;;;;;3.35;1.73;;;;;;;19.86;47.67;102646.63;5050620;28;20025;-59
2021/09/21 00:43:35;;;;;;;5.13;1.60;;;;;;;19.86;47.98;102646.63;5051630;28;20099;-59
2021/09/21 00:46:01;;;;;;;3.42;1.60;;;;;;;19.85;48.00;102638.78;5051729;28;20098;-60
2021/09/21 00:48:26;;;;;;;3.00;1.40;;;;;;;19.84;48.01;102635.28;5051016;28;20025;-60
2021/09/21 00:50:51;;;;;;;3.05;1.63;;;;;;;19.84;48.13;102639.75;5055204;28;20291;-59
2021/09/21 00:53:17;;;;;;;3.22;1.58;;;;;;;19.82;47.91;102634.53;5056066;28;20029;-59
2021/09/21 00:55:44;;;;;;;3.03;1.50;;;;;;;19.83;47.57;102638.88;5054993;28;20024;-60
2021/09/21 00:58:09;;;;;;;4.10;1.70;;;;;;;19.83;47.90;102640.69;5055458;28;20021;-60
2021/09/21 01:00:35;;;;;;;3.20;1.60;;;;;;;19.83;47.85;102632.75;5055860;28;20365;-62
2021/09/21 01:03:00;;;;;;;4.47;1.63;;;;;;;19.82;47.65;102636.31;5054785;28;20266;-61
2021/09/21 01:05:25;;;;;;;3.50;1.70;;;;;;;19.77;47.61;102631.31;5055724;28;20086;-62
2021/09/21 01:07:51;;;;;;;3.15;1.60;;;;;;;19.82;47.80;102646.91;5055362;28;20063;-61
2021/09/21 01:10:20;;;;;;;3.95;1.60;;;;;;;19.81;47.88;102647.88;5054718;28;20076;-60
2021/09/21 01:12:49;;;;;;;4.07;1.60;;;;;;;19.80;47.83;102638.22;5055370;28;20146;-60
2021/09/21 01:15:15;;;;;;;3.28;1.58;;;;;;;19.80;47.82;102644.34;5055544;28;20089;-61
2021/09/21 01:17:41;;;;;;;4.45;1.75;;;;;;;19.79;47.74;102658.53;5054721;28;20021;-61
2021/09/21 01:20:15;;;;;;;3.25;1.40;;;;;;;19.78;47.83;102659.47;5055148;28;20025;-60
2021/09/21 01:22:43;;;;;;;5.93;1.90;;;;;;;19.79;47.74;102665.59;5055420;28;20025;-61
2021/09/21 01:25:09;;;;;;;3.00;1.55;;;;;;;19.79;47.74;102649.72;5054265;28;20021;-60
2021/09/21 01:27:35;;;;;;;2.95;1.60;;;;;;;19.78;47.73;102659.47;5055052;28;20099;-60
2021/09/21 01:30:02;;;;;;;4.07;1.80;;;;;;;19.77;47.82;102656.91;5054667;28;20358;-60
2021/09/21 01:32:30;;;;;;;3.53;1.48;;;;;;;19.77;47.76;102667.50;5054413;28;20040;-60
2021/09/21 01:34:55;;;;;;;3.85;1.60;;;;;;;19.76;47.86;102658.72;5054566;28;20056;-59
2021/09/21 01:37:22;;;;;;;3.33;1.50;;;;;;;19.75;47.77;102659.63;5054146;28;20131;-59
2021/09/21 01:39:47;;;;;;;2.95;1.42;;;;;;;19.75;47.71;102665.75;5054599;28;20029;-59
2021/09/21 01:42:16;;;;;;;3.10;1.65;;;;;;;19.73;47.87;102667.66;5054930;28;20029;-59
2021/09/21 01:44:41;;;;;;;3.40;1.55;;;;;;;19.74;47.79;102672.00;5054149;28;20063;-60
2021/09/21 01:47:06;;;;;;;3.08;1.60;;;;;;;19.74;47.77;102668.47;5054268;28;20776;-60
2021/09/21 01:50:06;;;;;;;2.95;1.30;;;;;;;19.72;47.85;102663.28;5054569;28;20078;-60
2021/09/21 01:52:48;;;;;;;4.85;1.70;;;;;;;19.72;47.58;102665.94;5053582;28;20044;-60
2021/09/21 02:00:43;;;;;;;3.60;1.70;;;;;;;19.71;47.83;102651.03;5054621;28;20044;-60
2021/09/21 02:03:09;;;;;;;4.10;1.70;;;;;;;19.71;47.59;102647.50;5053993;28;20033;-60
2021/09/21 02:05:35;;;;;;;3.25;1.70;;;;;;;19.70;47.75;102644.00;5053757;28;20029;-60
2021/09/21 02:08:00;;;;;;;3.80;1.77;;;;;;;19.70;47.69;102644.00;5053537;28;20080;-60
2021/09/21 02:10:25;;;;;;;3.38;1.60;;;;;;;19.69;47.68;102641.47;5054178;28;20021;-60
2021/09/21 02:12:51;;;;;;;3.65;1.63;;;;;;;19.70;47.58;102643.19;5053319;28;20033;-60
2021/09/21 02:15:16;;;;;;;3.67;1.50;;;;;;;19.68;47.68;102634.50;5054095;28;20036;-60
2021/09/21 02:17:41;;;;;;;5.32;1.73;;;;;;;19.68;47.58;102637.97;5054172;28;20048;-59
2021/09/21 02:20:07;;;;;;;4.35;1.55;;;;;;;19.65;47.61;102632.88;5052766;28;20028;-60
2021/09/21 02:22:33;;;;;;;3.15;1.60;;;;;;;19.67;47.68;102636.25;5053860;28;20029;-60
2021/09/21 02:25:00;;;;;;;3.65;1.75;;;;;;;19.67;47.63;102632.78;5053499;28;20025;-60
2021/09/21 02:27:26;;;;;;;3.60;1.55;;;;;;;19.67;47.69;102630.13;5052908;28;20033;-59
2021/09/21 02:29:51;;;;;;;2.83;1.50;;;;;;;19.65;47.86;102632.88;5053447;28;20021;-59
2021/09/21 02:32:17;;;;;;;2.70;1.30;;;;;;;19.66;47.56;102637.22;5053769;28;20472;-60
2021/09/21 02:34:45;;;;;;;3.08;1.63;;;;;;;19.64;47.68;102639.09;5053151;28;20083;-59
2021/09/21 02:37:15;;;;;;;3.75;1.77;;;;;;;19.64;47.61;102647.03;5053223;28;20039;-60
2021/09/21 02:39:41;;;;;;;3.65;1.60;;;;;;;19.63;47.56;102645.34;5053587;28;20420;-59
2021/09/21 02:42:07;;;;;;;3.92;1.65;;;;;;;19.63;47.52;102645.34;5052412;28;20052;-59
2021/09/21 02:44:33;;;;;;;3.63;1.67;;;;;;;19.63;47.69;102647.13;5053515;28;20050;-60
2021/09/21 02:46:59;;;;;;;3.70;1.58;;;;;;;19.62;47.48;102651.56;5052979;28;20529;-60
2021/09/21 02:49:24;;;;;;;3.38;1.60;;;;;;;19.61;47.47;102652.50;5052516;28;20037;-59
2021/09/21 02:51:50;;;;;;;3.33;1.50;;;;;;;19.60;47.74;102655.22;5053007;28;20017;-59
2021/09/21 02:54:15;;;;;;;3.30;1.50;;;;;;;19.61;47.68;102659.59;5053244;28;20488;-60
2021/09/21 02:56:40;;;;;;;3.60;1.55;;;;;;;19.61;47.64;102667.53;5052392;28;20032;-61
2021/09/21 02:59:05;;;;;;;3.28;1.60;;;;;;;19.60;47.64;102663.16;5052715;28;20044;-61
2021/09/21 03:01:32;;;;;;;3.20;1.63;;;;;;;19.59;47.55;102667.59;5052868;28;20033;-60
2021/09/21 03:04:01;;;;;;;3.40;1.70;;;;;;;19.58;47.54;102669.41;5052697;28;20048;-60
2021/09/21 03:06:33;;;;;;;3.13;1.75;;;;;;;19.59;47.74;102670.25;5053166;28;20033;-60
2021/09/21 03:09:09;;;;;;;3.20;1.60;;;;;;;19.56;47.61;102667.78;5052354;28;20025;-60
2021/09/21 03:11:41;;;;;;;4.13;1.80;;;;;;;19.57;47.53;102656.28;5052169;28;20493;-61
2021/09/21 03:19:24;;;;;;;3.20;1.50;;;;;;;19.55;47.59;102669.59;5052770;28;20087;-60
2021/09/21 03:21:49;;;;;;;3.35;1.50;;;;;;;19.54;47.65;102678.47;5052120;28;20053;-60
2021/09/21 03:24:15;;;;;;;3.25;1.60;;;;;;;19.54;47.65;102674.97;5052067;28;20188;-60
2021/09/21 03:26:40;;;;;;;3.25;1.50;;;;;;;19.53;47.54;102681.19;5053013;28;20056;-60
2021/09/21 03:29:08;;;;;;;3.08;1.70;;;;;;;19.53;47.63;102687.31;5052346;28;20032;-60
2021/09/21 03:31:33;;;;;;;2.83;1.55;;;;;;;19.52;47.44;102680.34;5051890;28;20029;-60
2021/09/21 03:33:58;;;;;;;3.90;1.70;;;;;;;19.53;47.50;102694.41;5052275;28;20104;-60
2021/09/21 03:36:24;;;;;;;4.20;1.55;;;;;;;19.52;47.44;102687.44;5052392;28;20052;-59
2021/09/21 03:38:49;;;;;;;3.53;1.75;;;;;;;19.52;47.48;102692.72;5051588;28;20457;-61
2021/09/21 03:41:15;;;;;;;3.70;1.48;;;;;;;19.51;47.62;102698.94;5052232;28;20485;-59
2021/09/21 03:43:40;;;;;;;3.45;1.70;;;;;;;19.50;47.45;102703.41;5052378;28;20025;-60
2021/09/21 03:46:05;;;;;;;4.05;1.85;;;;;;;19.51;47.38;102706.88;5051318;28;20400;-60
2021/09/21 03:48:34;;;;;;;2.95;1.58;;;;;;;19.51;47.22;102718.31;5052309;28;20017;-60
2021/09/21 03:50:59;;;;;;;3.03;1.42;;;;;;;19.50;47.51;102711.31;5050900;28;20102;-59
2021/09/21 03:53:25;;;;;;;3.90;1.73;;;;;;;19.49;47.51;102716.69;5052412;28;20384;-60
2021/09/21 03:55:50;;;;;;;3.28;1.50;;;;;;;19.47;47.35;102706.22;5052066;28;20024;-60
2021/09/21 03:58:15;;;;;;;3.75;1.73;;;;;;;19.47;47.38;102706.22;5051729;28;20041;-60
2021/09/21 04:00:41;;;;;;;3.65;1.70;;;;;;;19.50;47.33;102716.63;5052163;28;20077;-59
2021/09/21 04:03:06;;;;;;;3.80;1.77;;;;;;;19.48;47.20;102718.47;5051848;28;20636;-59
2021/09/21 04:05:31;;;;;;;4.13;1.83;;;;;;;19.48;47.32;102715.81;5051419;28;20025;-60
2021/09/21 04:07:57;;;;;;;3.45;1.90;;;;;;;19.45;47.34;102710.72;5051892;28;20503;-60
2021/09/21 04:10:22;;;;;;;4.10;1.65;;;;;;;19.47;47.53;102719.44;5051757;28;20020;-60
2021/09/21 04:12:47;;;;;;;3.83;1.70;;;;;;;19.45;47.48;102723.09;5050980;28;20025;-60
2021/09/21 04:15:13;;;;;;;3.92;1.80;;;;;;;19.46;47.24;102732.75;5051925;28;20090;-60
2021/09/21 04:17:39;;;;;;;2.90;1.45;;;;;;;19.43;47.23;102741.69;5051871;28;20027;-59
2021/09/21 04:20:05;;;;;;;3.00;1.48;;;;;;;19.43;47.09;102740.84;5050928;28;20021;-60
2021/09/21 04:22:30;;;;;;;3.45;1.55;;;;;;;19.45;47.12;102747.72;5051640;28;20025;-60
2021/09/21 04:24:56;;;;;;;3.65;1.70;;;;;;;19.43;47.08;102746.13;5051448;28;20028;-59
2021/09/21 04:27:22;;;;;;;3.42;1.80;;;;;;;19.44;47.27;102753.09;5051180;28;20025;-60
2021/09/21 04:29:50;;;;;;;3.92;1.75;;;;;;;19.43;47.03;102746.13;5051439;28;20033;-61
2021/09/21 04:32:19;;;;;;;3.97;1.80;;;;;;;19.43;46.92;102754.06;5051783;28;20043;-60
2021/09/21 04:34:46;;;;;;;3.65;1.63;;;;;;;19.42;47.00;102763.78;5050996;28;20181;-61
2021/09/21 04:37:12;;;;;;;3.40;1.70;;;;;;;19.39;46.96;102753.38;5051729;28;20028;-60
2021/09/21 04:39:41;;;;;;;3.55;1.73;;;;;;;19.40;47.30;102748.00;5051619;28;20318;-60
2021/09/21 04:42:06;;;;;;;3.63;1.77;;;;;;;19.40;47.09;102744.50;5050481;28;20021;-60
2021/09/21 04:44:31;;;;;;;4.40;1.80;;;;;;;19.40;47.00;102749.78;5051601;28;20044;-60
2021/09/21 04:46:57;;;;;;;3.43;1.60;;;;;;;19.38;47.04;102756.97;5051281;28;20029;-60
2021/09/21 04:49:22;;;;;;;3.47;1.70;;;;;;;19.36;47.07;102751.78;5050596;28;20311;-58
2021/09/21 04:51:47;;;;;;;4.38;1.80;;;;;;;19.39;47.12;102769.22;5051394;28;20784;-60
2021/09/21 04:54:15;;;;;;;3.40;1.60;;;;;;;19.37;47.02;102765.84;5050887;28;20040;-60
2021/09/21 04:56:40;;;;;;;3.55;1.65;;;;;;;19.37;47.06;102765.84;5051438;28;20764;-60
2021/09/21 04:59:05;;;;;;;4.18;1.90;;;;;;;19.37;46.99;102771.13;5050958;28;20021;-60
2021/09/21 05:01:32;;;;;;;2.83;1.38;;;;;;;19.36;47.10;102761.50;5050619;28;20025;-60
2021/09/21 05:04:00;;;;;;;3.17;1.80;;;;;;;19.36;46.81;102758.84;5051058;28;20032;-60
2021/09/21 05:06:25;;;;;;;3.45;1.60;;;;;;;19.34;46.90;102769.53;5051527;28;20025;-60
2021/09/21 05:08:50;;;;;;;3.55;1.58;;;;;;;19.34;46.67;102774.81;5050355;28;20437;-60
2021/09/21 05:11:15;;;;;;;3.67;1.80;;;;;;;19.30;47.23;102780.34;5051462;28;20024;-59
2021/09/21 05:13:41;;;;;;;3.07;1.53;;;;;;;19.34;46.96;102789.78;5051377;28;20029;-60
2021/09/21 05:16:06;;;;;;;3.78;1.63;;;;;;;19.34;46.87;102792.44;5050281;28;20567;-60
2021/09/21 05:18:32;;;;;;;3.60;1.60;;;;;;;19.34;46.82;102792.44;5051209;28;20098;-60
2021/09/21 05:20:57;;;;;;;3.70;1.70;;;;;;;19.34;46.68;102789.78;5050850;28;20029;-60
2021/09/21 05:23:23;;;;;;;3.70;1.70;;;;;;;19.31;46.93;102777.63;5050840;28;20108;-60
2021/09/21 05:25:48;;;;;;;3.60;1.63;;;;;;;19.31;46.89;102774.97;5051065;28;20078;-60
2021/09/21 05:28:17;;;;;;;3.55;1.88;;;;;;;19.31;46.89;102780.25;5051295;28;20028;-60
2021/09/21 05:30:42;;;;;;;3.28;1.73;;;;;;;19.32;46.87;102787.22;5050380;28;20503;-61
2021/09/21 05:33:07;;;;;;;3.97;1.80;;;;;;;19.34;46.74;102793.31;5050726;28;20041;-60
2021/09/21 05:35:35;;;;;;;3.53;1.80;;;;;;;19.37;46.80;102800.19;5052413;28;20021;-60
2021/09/21 05:38:00;;;;;;;2.88;1.42;;;;;;;19.40;46.73;102815.91;5053552;28;20780;-60
2021/09/21 05:40:27;;;;;;;3.47;1.70;;;;;;;19.42;47.06;102813.16;5054608;28;20021;-60
2021/09/21 05:42:52;;;;;;;3.65;1.65;;;;;;;19.44;46.74;102824.50;5054583;28;20092;-61
2021/09/21 05:45:17;;;;;;;3.38;1.60;;;;;;;19.44;46.94;102822.72;5058934;28;20092;-60
2021/09/21 05:47:43;;;;;;;3.90;1.60;;;;;;;19.45;46.60;102826.22;5058618;28;20028;-61
2021/09/21 05:50:10;;;;;;;3.15;1.50;;;;;;;19.47;46.19;102832.25;5054892;28;20075;-60
2021/09/21 05:52:35;;;;;;;3.13;1.70;;;;;;;19.47;46.64;102832.25;5055990;28;20021;-59
2021/09/21 05:55:07;;;;;;;3.08;1.50;;;;;;;19.46;46.73;102827.94;5055367;28;20045;-59
2021/09/21 05:57:33;;;;;;;3.90;1.80;;;;;;;19.47;46.50;102830.50;5061711;28;20024;-61
2021/09/21 05:59:58;;;;;;;5.53;1.70;;;;;;;19.48;46.43;102836.63;5062052;28;20435;-61
2021/09/21 06:02:24;;;;;;;3.10;1.55;;;;;;;19.49;46.28;102838.34;5062251;28;20054;-60
2021/09/21 06:04:50;;;;;;;2.85;1.45;;;;;;;19.46;46.64;102823.50;5061333;28;20021;-61
2021/09/21 06:07:15;;;;;;;3.55;1.85;;;;;;;19.46;46.22;102823.50;5061697;28;20029;-61
2021/09/21 06:09:43;;;;;;;2.50;1.40;;;;;;;19.46;46.24;102822.66;5056230;28;20025;-60
2021/09/21 06:12:09;;;;;;;3.55;1.70;;;;;;;19.45;46.46;102823.56;5053445;28;20032;-61
2021/09/21 06:14:34;;;;;;;3.30;1.67;;;;;;;19.44;46.12;102828.03;5054753;28;20389;-60
2021/09/21 06:16:59;;;;;;;3.25;1.50;;;;;;;19.44;46.18;102835.09;5054301;28;20485;-61
2021/09/21 06:19:25;;;;;;;3.72;1.80;;;;;;;19.44;46.32;102841.25;5054009;28;20127;-60
2021/09/21 06:21:53;;;;;;;3.20;1.67;;;;;;;19.43;46.37;102838.69;5054097;28;20039;-60
2021/09/21 06:24:19;;;;;;;3.53;1.73;;;;;;;19.43;46.17;102839.53;5054435;28;20048;-61
2021/09/21 06:26:44;;;;;;;3.72;1.92;;;;;;;19.45;46.18;102847.38;5053520;28;20041;-59
2021/09/21 06:29:12;;;;;;;3.67;1.80;;;;;;;19.46;46.63;102843.81;5053930;28;20091;-59
2021/09/21 06:31:37;;;;;;;4.18;1.88;;;;;;;19.48;46.96;102841.91;5054212;28;20052;-59
2021/09/21 06:34:03;;;;;;;3.40;1.55;;;;;;;19.51;47.22;102839.94;5054065;28;20472;-61
2021/09/21 06:36:31;;;;;;;3.38;1.70;;;;;;;19.54;47.17;102844.22;5055301;28;20021;-60
2021/09/21 06:38:56;;;;;;;4.38;1.80;;;;;;;19.59;47.12;102855.38;5054002;28;20029;-62
2021/09/21 06:41:21;;;;;;;3.55;1.73;;;;;;;19.61;47.39;102857.94;5053156;28;20429;-59
2021/09/21 06:43:47;;;;;;;4.38;1.50;;;;;;;19.67;47.22;102870.84;5053797;28;20039;-60
2021/09/21 06:46:12;;;;;;;4.43;1.73;;;;;;;19.69;47.38;102880.41;5053202;28;20112;-62
2021/09/21 06:48:40;;;;;;;3.90;1.73;;;;;;;19.73;47.40;102878.44;5052457;28;20024;-59
2021/09/21 06:51:09;;;;;;;3.75;1.67;;;;;;;19.75;47.28;102887.97;5053230;28;20045;-59
2021/09/21 06:53:35;;;;;;;3.33;1.63;;;;;;;19.79;47.30;102885.19;5053620;28;20052;-60
2021/09/21 06:56:01;;;;;;;4.80;1.67;;;;;;;19.81;47.55;102888.63;5052604;28;20059;-58
2021/09/21 06:58:27;;;;;;;3.58;1.70;;;;;;;19.82;47.45;102887.66;5053371;28;20076;-60
2021/09/21 07:00:53;;;;;;;3.85;1.67;;;;;;;19.83;47.42;102894.66;5051787;28;20507;-60
2021/09/21 07:03:18;;;;;;;3.58;1.58;;;;;;;19.85;47.48;102903.38;5053460;28;20087;-59
2021/09/21 07:05:49;;;;;;;3.33;1.60;;;;;;;19.84;47.35;102901.69;5053251;28;20060;-60
2021/09/21 07:08:15;;;;;;;3.28;1.60;;;;;;;19.86;47.25;102902.44;5052790;28;20029;-60
2021/09/21 07:10:40;;;;;;;5.07;1.40;;;;;;;19.86;47.66;102897.16;5053151;28;20048;-62
2021/09/21 07:13:05;;;;;;;3.92;2.03;;;;;;;19.87;47.94;102902.34;5053986;28;20065;-61
2021/09/21 07:15:30;;;;;;;3.35;1.70;;;;;;;19.90;48.23;102907.47;5055031;28;20449;-65
2021/09/21 07:17:56;;;;;;;3.95;1.80;;;;;;;19.92;48.22;102905.59;5053511;28;20022;-63
2021/09/21 07:20:23;;;;;;;4.28;1.80;;;;;;;19.90;48.36;102906.59;5053329;28;20104;-61
2021/09/21 07:22:49;;;;;;;4.05;1.88;;;;;;;19.91;48.04;102895.09;5052298;28;20024;-63
2021/09/21 07:25:17;;;;;;;3.30;1.75;;;;;;;19.92;48.05;102896.81;5053415;28;20086;-62
2021/09/21 07:27:42;;;;;;;3.42;1.65;;;;;;;19.90;47.92;102893.38;5053657;28;20116;-64
2021/09/21 07:30:11;;;;;;;4.78;1.60;;;;;;;19.92;48.20;102894.16;5053041;28;20392;-64
2021/09/21 07:32:37;;;;;;;4.00;1.70;;;;;;;19.92;48.14;102902.94;5054742;28;20029;-62
2021/09/21 07:35:04;;;;;;;4.57;2.00;;;;;;;19.93;48.25;102907.31;5054731;28;20055;-62
2021/09/21 07:37:29;;;;;;;4.13;1.75;;;;;;;19.94;48.35;102908.16;5053333;28;20025;-62
2021/09/21 07:39:55;;;;;;;4.53;1.80;;;;;;;19.95;48.03;102907.22;5053524;28;20073;-63
2021/09/21 07:42:20;;;;;;;3.40;1.70;;;;;;;19.94;48.07;102916.09;5054343;28;20388;-61
2021/09/21 07:44:46;;;;;;;4.65;1.80;;;;;;;19.95;48.16;102917.81;5052910;28;20388;-59
2021/09/21 07:47:15;;;;;;;5.55;1.63;;;;;;;19.93;48.08;102923.19;5053005;28;20043;-63
2021/09/21 07:49:43;;;;;;;4.30;1.60;;;;;;;19.94;47.97;102924.03;5053350;28;20037;-64
2021/09/21 07:52:09;;;;;;;4.13;1.75;;;;;;;19.92;47.95;102925.91;5051957;28;20017;-61
2021/09/21 07:54:39;;;;;;;4.75;2.03;;;;;;;19.92;47.92;102915.31;5052664;28;20353;-62
2021/09/21 07:57:05;;;;;;;4.00;1.90;;;;;;;19.91;48.15;102914.44;5051519;28;20028;-61
2021/09/21 07:59:30;;;;;;;4.00;1.80;;;;;;;19.92;48.35;102912.69;5052630;28;20427;-60
2021/09/21 08:01:56;;;;;;;3.60;1.83;;;;;;;19.91;48.43;102909.16;5052451;28;20458;-61
2021/09/21 08:04:21;;;;;;;4.00;1.63;;;;;;;19.90;48.48;102917.19;5052157;28;20349;-61
2021/09/21 08:06:46;;;;;;;3.78;1.55;;;;;;;19.90;48.48;102922.47;5052713;28;20064;-62
2021/09/21 08:09:12;;;;;;;3.63;1.83;;;;;;;19.88;48.50;102922.56;5052201;28;20032;-58
2021/09/21 08:11:40;;;;;;;4.35;1.80;;;;;;;19.88;48.45;102929.66;5051506;28;20305;-57
2021/09/21 08:14:06;;;;;;;4.57;2.10;;;;;;;19.86;48.66;102927.09;5052154;28;20079;-61
2021/09/21 08:16:33;;;;;;;5.45;1.73;;;;;;;19.87;48.50;102925.31;5052978;28;20025;-62
2021/09/21 08:18:59;;;;;;;4.47;1.75;;;;;;;19.86;48.54;102935.03;5051574;28;20025;-60
2021/09/21 08:21:27;;;;;;;5.63;1.98;;;;;;;19.83;48.84;102929.91;5052092;28;20325;-62
2021/09/21 08:23:53;;;;;;;4.28;1.70;;;;;;;19.87;48.81;102934.09;5051871;28;20021;-62
2021/09/21 08:26:19;;;;;;;5.45;2.00;;;;;;;19.88;49.05;102935.78;5052006;28;20029;-64
2021/09/21 08:28:44;;;;;;;4.53;1.80;;;;;;;19.89;49.37;102932.22;5052744;28;20028;-62
2021/09/21 08:31:12;;;;;;;4.95;1.90;;;;;;;19.89;49.19;102940.16;5052170;28;20025;-63
2021/09/21 08:33:40;;;;;;;4.00;1.80;;;;;;;19.89;49.10;102945.44;5051284;28;20029;-60
2021/09/21 08:36:06;;;;;;;4.55;1.73;;;;;;;19.90;49.26;102959.53;5051554;28;20021;-62
2021/09/21 08:38:32;;;;;;;4.97;1.90;;;;;;;19.90;49.36;102970.97;5052280;28;20040;-62
2021/09/21 08:41:06;;;;;;;4.57;1.85;;;;;;;19.91;49.36;102972.66;5050073;28;20080;-62
2021/09/21 08:43:32;;;;;;;4.10;1.70;;;;;;;19.91;49.23;102970.03;5053910;28;20021;-62
2021/09/21 08:46:09;;;;;;;4.85;1.70;;;;;;;19.92;49.32;102977.03;5052010;28;20071;-61
2021/09/21 08:48:34;;;;;;;5.70;1.77;;;;;;;19.93;49.43;102978.75;5052827;28;20025;-62
2021/09/21 08:51:00;;;;;;;3.67;1.52;;;;;;;19.91;49.32;102974.47;5052958;28;20118;-62
2021/09/21 08:53:25;;;;;;;5.22;1.67;;;;;;;19.93;49.41;102981.41;5051200;28;20032;-66
2021/09/21 08:55:51;;;;;;;3.95;1.70;;;;;;;19.92;49.35;102973.53;5051828;28;20024;-61
2021/09/21 08:58:25;;;;;;;5.75;2.03;;;;;;;19.92;49.32;102978.84;5051879;28;20097;-61
2021/09/21 09:00:54;;;;;;;6.10;1.67;;;;;;;19.91;49.15;102975.31;5050560;28;20033;-60
2021/09/21 09:03:20;;;;;;;4.10;1.70;;;;;;;19.91;49.16;102977.97;5051337;28;20120;-61
2021/09/21 09:05:53;;;;;;;5.05;1.70;;;;;;;19.91;49.16;102979.75;5051538;28;20032;-61
2021/09/21 09:08:33;;;;;;;5.25;2.20;;;;;;;19.90;49.29;102978.91;5050952;28;20078;-60
2021/09/21 09:11:20;;;;;;;5.38;1.77;;;;;;;19.90;49.42;102984.22;5053507;28;20032;-62
2021/09/21 09:13:56;;;;;;;2.85;1.40;;;;;;;19.89;49.07;102979.84;5055335;28;20079;-62
2021/09/21 09:16:24;;;;;;;5.75;1.90;;;;;;;19.91;49.27;102977.13;5054827;28;20070;-61
2021/09/21 09:19:06;;;;;;;6.00;1.73;;;;;;;19.91;48.97;102983.25;5054989;28;20031;-60
2021/09/21 09:21:33;;;;;;;3.70;1.60;;;;;;;19.90;49.29;102981.56;5054271;28;20445;-61
2021/09/21 09:24:01;;;;;;;3.67;1.75;;;;;;;19.91;49.05;102975.31;5054809;28;20052;-61
2021/09/21 09:26:27;;;;;;;4.03;1.60;;;;;;;19.91;49.11;102977.97;5055089;28;20035;-61
2021/09/21 09:28:54;;;;;;;4.97;1.75;;;;;;;19.92;49.44;102984.13;5053829;28;20116;-61
2021/09/21 09:31:34;;;;;;;3.72;1.63;;;;;;;19.92;49.28;102992.91;5055152;28;20108;-60
2021/09/21 09:34:27;;;;;;;3.80;1.67;;;;;;;19.90;49.34;102981.56;5054608;28;20087;-61
2021/09/21 09:36:58;;;;;;;3.58;1.45;;;;;;;19.92;49.33;102977.03;5053791;28;20021;-62
2021/09/21 09:39:26;;;;;;;3.25;1.50;;;;;;;19.92;49.40;102976.19;5055028;28;20032;-60
2021/09/21 09:41:57;;;;;;;4.47;1.80;;;;;;;19.92;49.09;102974.38;5054537;28;20104;-59
2021/09/21 09:44:27;;;;;;;4.63;1.85;;;;;;;19.92;49.18;102978.84;5054222;28;20017;-60
2021/09/21 09:47:03;;;;;;;8.07;2.00;;;;;;;19.92;49.49;102979.69;5054607;28;20017;-60
2021/09/21 09:49:29;;;;;;;7.97;1.90;;;;;;;19.93;49.34;102976.09;5054052;28;20082;-62
2021/09/21 10:04:03;;;;;;;1.67;0.80;;;;;;;21.26;45.76;102994.09;5069314;28;20403;-62
2021/09/21 10:06:30;;;;;;;2.22;0.88;;;;;;;21.47;45.24;103006.03;5024378;28;20530;-62
2021/09/21 10:08:57;;;;;;;2.67;1.02;;;;;;;21.66;44.54;103003.09;5015597;28;20033;-65
2021/09/21 10:11:23;;;;;;;3.30;1.10;;;;;;;21.80;43.63;103002.25;5029954;28;20034;-61
2021/09/21 10:13:49;;;;;;;2.92;1.00;;;;;;;21.92;43.81;103006.78;5031094;28;20045;-63
2021/09/21 10:16:14;;;;;;;1.75;0.80;;;;;;;22.04;43.66;103006.94;5030443;28;20076;-61
2021/09/21 10:18:44;;;;;;;4.15;1.25;;;;;;;22.15;43.38;103009.75;5029595;28;20033;-60
2021/09/21 10:21:10;;;;;;;2.45;1.08;;;;;;;22.22;43.31;103000.47;5031083;28;20034;-61
2021/09/21 10:23:39;;;;;;;2.45;1.00;;;;;;;22.30;43.00;103007.09;5030508;28;20083;-61
2021/09/21 10:26:17;;;;;;;4.82;1.13;;;;;;;22.35;43.03;103000.53;5029136;28;20049;-62
2021/09/21 10:28:46;;;;;;;2.45;0.95;;;;;;;22.38;42.70;103000.34;5029976;28;20025;-61
2021/09/21 10:31:14;;;;;;;2.90;1.23;;;;;;;22.44;42.78;103002.56;5031280;28;20026;-61
2021/09/21 10:33:40;;;;;;;3.65;1.10;;;;;;;22.49;42.95;102999.59;5029305;28;20465;-60
2021/09/21 10:36:17;;;;;;;2.03;1.00;;;;;;;22.53;42.52;102994.97;5030794;28;20052;-63
2021/09/21 10:38:57;;;;;;;2.33;1.20;;;;;;;22.54;42.42;102991.31;5032249;28;20028;-66
2021/09/21 10:41:23;;;;;;;2.88;0.90;;;;;;;22.54;42.49;102994.84;5033644;28;20091;-66
2021/09/21 10:44:07;;;;;;;3.92;1.30;;;;;;;22.55;42.83;102993.03;5033131;28;20076;-64
2021/09/21 10:46:43;;;;;;;2.05;1.05;;;;;;;22.55;42.58;102987.72;5032158;28;20033;-62
2021/09/21 10:49:09;;;;;;;2.40;1.05;;;;;;;22.55;42.64;102983.25;5031223;28;20381;-63
2021/09/21 10:51:34;;;;;;;3.08;1.10;;;;;;;22.55;42.58;102993.88;5029615;28;20026;-64
2021/09/21 10:54:03;;;;;;;2.40;0.95;;;;;;;22.54;42.46;102993.97;5030083;28;20036;-61
2021/09/21 10:56:29;;;;;;;1.90;1.00;;;;;;;22.57;42.63;102991.13;5030378;28;20048;-62
2021/09/21 10:58:57;;;;;;;2.72;1.05;;;;;;;22.60;42.42;102991.75;5029772;28;20037;-61
2021/09/21 11:01:22;;;;;;;2.80;1.20;;;;;;;22.64;42.67;102995.09;5028942;28;20028;-61
2021/09/21 11:03:50;;;;;;;4.13;1.05;;;;;;;22.64;42.77;102998.59;5029721;28;20050;-64
2021/09/21 11:06:16;;;;;;;3.20;1.27;;;;;;;22.66;42.77;103003.81;5029806;28;20030;-63
2021/09/21 11:08:41;;;;;;;2.75;1.10;;;;;;;22.67;42.89;103005.53;5029076;28;20021;-63
2021/09/21 11:11:08;;;;;;;2.72;1.17;;;;;;;22.69;42.76;103013.38;5029327;28;20881;-63
2021/09/21 11:13:36;;;;;;;2.65;1.13;;;;;;;22.69;42.65;103008.91;5026064;28;20026;-64
2021/09/21 11:16:04;;;;;;;3.80;1.10;;;;;;;22.69;42.48;103005.41;5014801;28;20025;-61
2021/09/21 11:18:30;;;;;;;3.17;1.00;;;;;;;22.69;42.74;103002.75;5015847;28;20507;-61
2021/09/21 11:21:06;;;;;;;3.20;1.13;;;;;;;22.73;42.62;103001.56;5015033;28;20025;-64
2021/09/21 11:23:35;;;;;;;3.60;1.10;;;;;;;22.72;42.66;102998.09;5015861;28;20022;-64
2021/09/21 11:26:07;;;;;;;4.05;1.17;;;;;;;22.74;43.12;103004.13;5015499;28;20030;-65
2021/09/21 11:28:35;;;;;;;5.20;1.20;;;;;;;22.74;43.17;102997.97;5015086;28;20022;-62
2021/09/21 11:31:01;;;;;;;3.03;1.25;;;;;;;22.72;43.04;103000.75;5015263;28;20362;-61
2021/09/21 11:33:30;;;;;;;2.67;0.95;;;;;;;22.72;42.90;102999.91;5016347;28;20095;-61
2021/09/21 11:36:04;;;;;;;3.60;0.98;;;;;;;22.74;42.86;103000.63;5015409;28;20083;-61
2021/09/21 11:38:33;;;;;;;2.33;0.95;;;;;;;22.75;42.89;103005.84;5015721;28;20038;-61
2021/09/21 11:40:59;;;;;;;2.88;1.00;;;;;;;22.77;42.57;103000.44;5015338;28;20030;-65
2021/09/21 11:43:29;;;;;;;3.40;1.27;;;;;;;22.73;42.36;103002.44;5014360;28;20518;-63
2021/09/21 11:45:55;;;;;;;4.85;1.42;;;;;;;22.75;42.76;103008.50;5014550;28;20034;-64
2021/09/21 11:48:21;;;;;;;3.47;1.20;;;;;;;22.76;42.83;103001.38;5014627;28;20022;-62